Time;durP1;ratioP1;P1;durP2;ratioP2;P2;SDS_P1;SDS_P2;PMS_P1;PMS_P2;Temp;Humidity;BMP_temperature;BMP_pressure;BME280_temperature;BME280_humidity;BME280_pressure;Samples;Min_cycle;Max_cycle;Signal;HPM_P1;HPM_P2
2022/11/27 00:01:15;;;;;;;23.97;8.23;;;6.20;99.90;;;;;;4994969;28;20413;-74
2022/11/27 00:03:41;;;;;;;26.67;8.47;;;6.10;99.90;;;;;;5024619;28;20445;-73
2022/11/27 00:06:10;;;;;;;24.03;8.17;;;6.20;99.90;;;;;;5025289;28;20427;-73
2022/11/27 00:08:36;;;;;;;25.42;8.25;;;6.10;99.90;;;;;;5045338;28;20402;-73
2022/11/27 00:11:10;;;;;;;24.52;8.15;;;6.10;99.90;;;;;;5050698;28;20786;-73
2022/11/27 00:13:36;;;;;;;27.30;8.27;;;6.10;99.90;;;;;;5041629;28;20475;-73
2022/11/27 00:16:03;;;;;;;24.08;8.02;;;6.10;99.90;;;;;;5031553;28;21293;-73
2022/11/27 00:18:29;;;;;;;24.83;8.60;;;6.10;99.90;;;;;;5016089;28;20488;-74
2022/11/27 00:20:54;;;;;;;23.20;8.13;;;6.10;99.90;;;;;;5043552;28;20685;-73
2022/11/27 00:23:20;;;;;;;25.67;8.82;;;6.10;99.90;;;;;;5019530;28;20444;-73
2022/11/27 00:25:51;;;;;;;25.50;8.50;;;6.10;99.90;;;;;;5050562;28;20412;-73
2022/11/27 00:28:16;;;;;;;22.00;8.43;;;6.10;99.90;;;;;;5033668;28;20453;-73
2022/11/27 00:30:42;;;;;;;24.75;8.70;;;6.10;99.90;;;;;;5020058;28;20917;-74
2022/11/27 00:33:07;;;;;;;26.73;11.87;;;6.10;99.90;;;;;;5034286;28;20401;-73
2022/11/27 00:35:33;;;;;;;31.42;15.85;;;6.00;99.90;;;;;;5050913;28;20923;-73
2022/11/27 00:37:58;;;;;;;40.03;20.23;;;6.00;99.90;;;;;;5043963;28;20401;-73
2022/11/27 00:40:24;;;;;;;41.20;21.15;;;6.00;99.90;;;;;;5040493;28;20395;-73
2022/11/27 00:42:50;;;;;;;38.73;20.50;;;6.00;99.90;;;;;;5047379;28;20484;-73
2022/11/27 00:45:15;;;;;;;39.75;19.80;;;6.00;99.90;;;;;;5048961;28;20413;-73
2022/11/27 00:47:41;;;;;;;32.77;19.63;;;5.90;99.90;;;;;;5034301;28;21062;-73
2022/11/27 00:50:07;;;;;;;33.63;17.20;;;5.90;99.90;;;;;;5019458;28;20449;-73
2022/11/27 00:52:33;;;;;;;30.98;15.52;;;5.90;99.90;;;;;;5046146;28;20405;-73
2022/11/27 00:54:58;;;;;;;32.60;15.27;;;5.90;99.90;;;;;;5050814;28;20436;-73
2022/11/27 00:57:24;;;;;;;33.20;13.83;;;5.90;99.90;;;;;;5043823;28;20409;-73
2022/11/27 00:59:50;;;;;;;27.50;12.77;;;5.90;99.90;;;;;;5029474;28;20655;-73
2022/11/27 01:02:16;;;;;;;25.45;11.80;;;5.90;99.90;;;;;;5034125;28;20414;-73
2022/11/27 01:04:45;;;;;;;27.85;11.77;;;5.90;99.90;;;;;;5046737;28;20768;-73
2022/11/27 01:07:10;;;;;;;24.70;10.47;;;5.80;99.90;;;;;;5046332;28;20417;-73
2022/11/27 01:09:36;;;;;;;23.03;10.37;;;5.80;99.90;;;;;;5040434;28;21392;-73
2022/11/27 01:12:02;;;;;;;25.70;9.25;;;5.80;99.90;;;;;;5028907;28;20966;-73
2022/11/27 01:14:27;;;;;;;21.70;9.27;;;5.80;99.90;;;;;;5047337;28;20443;-73
2022/11/27 01:16:53;;;;;;;26.70;9.90;;;5.80;99.90;;;;;;5015913;28;20426;-73
2022/11/27 01:19:19;;;;;;;27.63;9.75;;;5.70;99.90;;;;;;5040195;28;20767;-73
2022/11/27 01:21:45;;;;;;;19.90;8.67;;;5.70;99.90;;;;;;5037589;28;20406;-73
2022/11/27 01:24:13;;;;;;;22.55;9.30;;;5.70;99.90;;;;;;5030077;28;20437;-73
2022/11/27 01:26:39;;;;;;;22.73;9.23;;;5.70;99.90;;;;;;5029093;28;20911;-73
2022/11/27 01:29:05;;;;;;;22.75;8.52;;;5.70;99.90;;;;;;5040878;28;20404;-73
2022/11/27 01:31:32;;;;;;;20.87;8.83;;;5.70;99.90;;;;;;5027513;28;20407;-73
2022/11/27 01:34:07;;;;;;;22.20;8.67;;;5.60;99.90;;;;;;5028790;28;20435;-73
2022/11/27 01:36:34;;;;;;;20.63;8.95;;;5.60;99.90;;;;;;4996622;28;20446;-73
2022/11/27 01:39:00;;;;;;;23.97;9.23;;;5.60;99.90;;;;;;5040375;28;20412;-73
2022/11/27 01:41:34;;;;;;;23.10;8.85;;;5.60;99.90;;;;;;5036447;28;20492;-73
2022/11/27 01:44:03;;;;;;;21.40;8.75;;;5.60;99.90;;;;;;5036578;28;20395;-73
2022/11/27 01:46:34;;;;;;;23.27;9.10;;;5.50;99.90;;;;;;5017766;28;20448;-73
2022/11/27 01:49:09;;;;;;;22.92;8.68;;;5.50;99.90;;;;;;5031035;28;20927;-73
2022/11/27 01:51:43;;;;;;;18.60;8.00;;;5.50;99.90;;;;;;5015569;28;20412;-73
2022/11/27 01:54:10;;;;;;;22.58;8.40;;;5.50;99.90;;;;;;5036150;28;20467;-73
2022/11/27 01:56:38;;;;;;;19.30;8.07;;;5.40;99.90;;;;;;5045419;28;20402;-73
2022/11/27 01:59:05;;;;;;;22.58;8.75;;;5.40;99.90;;;;;;5029572;28;20407;-73
2022/11/27 02:01:30;;;;;;;21.60;8.07;;;5.40;99.90;;;;;;5029773;28;20403;-73
2022/11/27 02:03:59;;;;;;;19.20;8.20;;;5.40;99.90;;;;;;5027464;28;20417;-73
2022/11/27 02:06:25;;;;;;;17.95;8.20;;;5.40;99.90;;;;;;5049174;28;20401;-73
2022/11/27 02:08:51;;;;;;;23.05;8.10;;;5.40;99.90;;;;;;5034347;28;20445;-73
2022/11/27 02:11:52;;;;;;;18.20;8.18;;;5.40;99.90;;;;;;5039302;28;20413;-73
2022/11/27 02:14:31;;;;;;;19.55;8.35;;;5.40;99.90;;;;;;5024213;28;20890;-73
2022/11/27 02:17:38;;;;;;;19.00;8.00;;;5.40;99.90;;;;;;5026176;28;20411;-73
2022/11/27 02:20:31;;;;;;;20.80;8.00;;;5.40;99.90;;;;;;5024990;28;20430;-73
2022/11/27 02:23:34;;;;;;;17.73;7.80;;;5.30;99.90;;;;;;5029212;28;20502;-73
2022/11/27 02:26:18;;;;;;;18.50;8.23;;;5.30;99.90;;;;;;5039027;28;20491;-73
2022/11/27 02:29:06;;;;;;;17.08;7.80;;;5.30;99.90;;;;;;5040363;28;20419;-73
2022/11/27 02:31:35;;;;;;;20.48;8.25;;;5.20;99.90;;;;;;5013133;28;20821;-73
2022/11/27 02:34:15;;;;;;;20.73;7.93;;;5.20;99.90;;;;;;5039969;28;20516;-73
2022/11/27 02:36:48;;;;;;;21.05;8.48;;;5.20;99.90;;;;;;5030290;28;20515;-73
2022/11/27 02:39:19;;;;;;;19.38;8.05;;;5.20;99.90;;;;;;5028608;28;20446;-73
2022/11/27 02:41:52;;;;;;;21.27;8.45;;;5.20;99.90;;;;;;5039591;28;20413;-73
2022/11/27 02:44:20;;;;;;;23.25;9.02;;;5.10;99.90;;;;;;5030512;28;20494;-73
2022/11/27 02:46:47;;;;;;;21.85;8.25;;;5.10;99.90;;;;;;5040013;28;20451;-73
2022/11/27 02:49:16;;;;;;;20.52;8.55;;;5.10;99.90;;;;;;5042562;28;20751;-73
2022/11/27 02:51:48;;;;;;;20.25;8.88;;;5.10;99.90;;;;;;5031108;28;20441;-73
2022/11/27 02:54:19;;;;;;;19.95;8.25;;;5.10;99.90;;;;;;5031605;28;20441;-73
2022/11/27 02:56:47;;;;;;;20.35;8.68;;;5.10;99.90;;;;;;5011184;28;20490;-73
2022/11/27 02:59:15;;;;;;;19.48;7.90;;;5.10;99.90;;;;;;5032022;28;20468;-73
2022/11/27 03:01:47;;;;;;;21.95;8.23;;;5.10;99.90;;;;;;5047710;28;20433;-73
2022/11/27 03:04:17;;;;;;;20.92;8.90;;;5.10;99.90;;;;;;5003020;28;20450;-73
2022/11/27 03:06:48;;;;;;;21.52;8.65;;;5.10;99.90;;;;;;5035111;28;20403;-73
2022/11/27 03:09:20;;;;;;;20.05;8.45;;;5.10;99.90;;;;;;5027551;28;20423;-73
2022/11/27 03:11:46;;;;;;;18.85;8.55;;;5.10;99.90;;;;;;4993954;28;20446;-73
2022/11/27 03:14:13;;;;;;;20.10;9.18;;;5.10;99.90;;;;;;5021169;28;20524;-74
2022/11/27 03:17:15;;;;;;;19.63;8.25;;;5.20;99.90;;;;;;5028167;28;20395;-73
2022/11/27 03:20:07;;;;;;;20.55;8.65;;;5.20;99.90;;;;;;5027197;28;20430;-73
2022/11/27 03:22:33;;;;;;;18.73;8.35;;;5.20;99.90;;;;;;5015222;28;20419;-73
2022/11/27 03:24:58;;;;;;;17.98;8.63;;;5.20;99.90;;;;;;5010332;28;20415;-73
2022/11/27 03:27:31;;;;;;;20.97;8.37;;;5.20;99.90;;;;;;5024278;28;20478;-74
2022/11/27 03:30:00;;;;;;;19.67;8.32;;;5.20;99.90;;;;;;4997545;28;20416;-73
2022/11/27 03:32:27;;;;;;;15.70;8.67;;;5.20;99.90;;;;;;5022636;28;20440;-74
2022/11/27 03:34:54;;;;;;;17.15;7.65;;;5.20;99.90;;;;;;5019724;28;20949;-74
2022/11/27 03:37:20;;;;;;;19.13;8.13;;;5.30;99.90;;;;;;5027604;28;20884;-73
2022/11/27 03:39:46;;;;;;;18.80;8.18;;;5.30;99.90;;;;;;5004075;28;20407;-73
2022/11/27 03:42:26;;;;;;;15.73;7.20;;;5.30;99.90;;;;;;4990421;28;20834;-73
2022/11/27 03:45:15;;;;;;;18.83;7.22;;;5.30;99.90;;;;;;5002279;28;20422;-73
2022/11/27 03:48:19;;;;;;;14.82;6.72;;;5.30;99.90;;;;;;4994548;28;20421;-74
2022/11/27 03:51:02;;;;;;;19.27;7.65;;;5.30;99.90;;;;;;5006837;28;20409;-73
2022/11/27 03:53:45;;;;;;;18.13;7.38;;;5.30;99.90;;;;;;5007651;28;20491;-73
2022/11/27 03:56:34;;;;;;;14.50;6.80;;;5.30;99.90;;;;;;5002253;28;20463;-73
2022/11/27 03:59:07;;;;;;;14.45;6.68;;;5.30;99.90;;;;;;5008089;28;21333;-73
2022/11/27 04:01:33;;;;;;;15.30;6.68;;;5.40;99.90;;;;;;5009196;28;20413;-73
2022/11/27 04:03:59;;;;;;;17.37;6.93;;;5.40;99.90;;;;;;5015615;28;20753;-73
2022/11/27 04:06:24;;;;;;;17.60;6.43;;;5.40;99.90;;;;;;5020323;28;20420;-73
2022/11/27 04:08:50;;;;;;;16.27;6.60;;;5.40;99.90;;;;;;5030807;28;20413;-73
2022/11/27 04:11:15;;;;;;;15.83;6.40;;;5.40;99.90;;;;;;5026318;28;20423;-73
2022/11/27 04:13:41;;;;;;;13.60;6.53;;;5.40;99.90;;;;;;5013345;28;20433;-73
2022/11/27 04:16:07;;;;;;;17.40;6.70;;;5.40;99.90;;;;;;5010588;28;20416;-73
2022/11/27 04:18:33;;;;;;;14.20;6.13;;;5.40;99.90;;;;;;5046421;28;20455;-73
2022/11/27 04:20:58;;;;;;;16.03;6.47;;;5.40;99.90;;;;;;5043224;28;20749;-73
2022/11/27 04:23:24;;;;;;;17.33;6.43;;;5.40;99.90;;;;;;5037385;28;20411;-73
2022/11/27 04:25:50;;;;;;;16.23;6.00;;;5.40;99.90;;;;;;5017313;28;20444;-73
2022/11/27 04:28:16;;;;;;;16.50;6.28;;;5.40;99.90;;;;;;5020162;28;20441;-73
2022/11/27 04:30:42;;;;;;;14.02;5.53;;;5.40;99.90;;;;;;5033956;28;20455;-73
2022/11/27 04:33:08;;;;;;;13.88;5.82;;;5.50;99.90;;;;;;5026062;28;20456;-73
2022/11/27 04:35:34;;;;;;;14.35;5.68;;;5.40;99.90;;;;;;5046679;28;20429;-73
2022/11/27 04:38:00;;;;;;;14.60;5.60;;;5.50;99.90;;;;;;5038759;28;21344;-73
2022/11/27 04:40:26;;;;;;;15.68;5.70;;;5.50;99.90;;;;;;5029809;28;20411;-73
2022/11/27 04:42:52;;;;;;;13.80;5.70;;;5.50;99.90;;;;;;5041749;28;20495;-73
2022/11/27 04:45:18;;;;;;;13.25;4.95;;;5.50;99.90;;;;;;5031309;28;20406;-73
2022/11/27 04:47:43;;;;;;;14.35;5.97;;;5.50;99.90;;;;;;5030760;28;20399;-73
2022/11/27 04:50:09;;;;;;;14.87;5.83;;;5.50;99.90;;;;;;5044367;28;20409;-73
2022/11/27 04:52:35;;;;;;;15.13;5.25;;;5.50;99.90;;;;;;5030976;28;20431;-73
2022/11/27 04:55:01;;;;;;;14.43;5.50;;;5.50;99.90;;;;;;5026900;28;20433;-73
2022/11/27 04:57:27;;;;;;;13.05;5.05;;;5.50;99.90;;;;;;5024291;28;20485;-73
2022/11/27 04:59:52;;;;;;;12.20;5.05;;;5.50;99.90;;;;;;5027837;28;20917;-74
2022/11/27 05:02:18;;;;;;;14.57;5.33;;;5.50;99.90;;;;;;5044671;28;20481;-73
2022/11/27 05:04:44;;;;;;;13.07;5.55;;;5.50;99.90;;;;;;5030226;28;20768;-73
2022/11/27 05:07:10;;;;;;;13.23;4.97;;;5.50;99.90;;;;;;5038056;28;20418;-73
2022/11/27 05:09:35;;;;;;;13.93;5.37;;;5.50;99.90;;;;;;5037172;28;20427;-73
2022/11/27 05:12:01;;;;;;;16.98;5.28;;;5.50;99.90;;;;;;5049203;28;20463;-73
2022/11/27 05:14:28;;;;;;;13.43;5.00;;;5.50;99.90;;;;;;5035347;28;20430;-73
2022/11/27 05:16:58;;;;;;;13.98;5.80;;;5.50;99.90;;;;;;5039127;28;20955;-73
2022/11/27 05:19:27;;;;;;;17.13;5.45;;;5.50;99.90;;;;;;5046341;28;20454;-73
2022/11/27 05:21:52;;;;;;;15.30;5.28;;;5.50;99.90;;;;;;5039824;28;20432;-73
2022/11/27 05:24:20;;;;;;;15.48;5.65;;;5.50;99.90;;;;;;5046273;28;20419;-73
2022/11/27 05:26:46;;;;;;;13.33;5.03;;;5.50;99.90;;;;;;5046041;28;20440;-73
2022/11/27 05:29:12;;;;;;;15.27;5.28;;;5.50;99.90;;;;;;5015159;28;22084;-73
2022/11/27 05:31:39;;;;;;;13.20;4.80;;;5.50;99.90;;;;;;5030465;28;20411;-73
2022/11/27 05:34:05;;;;;;;13.48;4.90;;;5.50;99.90;;;;;;5014272;28;20433;-73
2022/11/27 05:36:32;;;;;;;16.20;5.30;;;5.50;99.90;;;;;;5047575;28;20409;-73
2022/11/27 05:38:59;;;;;;;12.93;5.32;;;5.50;99.90;;;;;;5046537;28;20403;-73
2022/11/27 05:41:24;;;;;;;14.88;5.20;;;5.50;99.90;;;;;;5012494;28;20881;-73
2022/11/27 05:43:50;;;;;;;15.07;5.07;;;5.50;99.90;;;;;;5029679;28;20544;-73
2022/11/27 05:46:19;;;;;;;11.05;4.47;;;5.50;99.90;;;;;;5011834;28;20457;-73
2022/11/27 05:48:44;;;;;;;18.00;5.25;;;5.50;99.90;;;;;;5018535;28;20951;-73
2022/11/27 05:51:10;;;;;;;17.30;5.32;;;5.50;99.90;;;;;;5027880;28;20411;-74
2022/11/27 05:53:36;;;;;;;11.70;5.13;;;5.40;99.90;;;;;;5015971;28;20547;-73
2022/11/27 05:56:10;;;;;;;13.48;4.45;;;5.40;99.90;;;;;;5031332;28;21098;-73
2022/11/27 05:58:37;;;;;;;13.90;5.32;;;5.40;99.90;;;;;;5044445;28;20423;-73
2022/11/27 06:01:03;;;;;;;14.27;5.20;;;5.40;99.90;;;;;;5040999;28;20879;-73
2022/11/27 06:03:28;;;;;;;15.57;5.00;;;5.40;99.90;;;;;;5017643;28;20409;-73
2022/11/27 06:05:54;;;;;;;12.10;4.97;;;5.40;99.90;;;;;;5043854;28;20393;-73
2022/11/27 06:08:20;;;;;;;12.65;5.43;;;5.40;99.90;;;;;;5030577;28;20478;-73
2022/11/27 06:10:46;;;;;;;10.57;4.75;;;5.30;99.90;;;;;;5049596;28;20406;-73
2022/11/27 06:13:12;;;;;;;13.27;4.93;;;5.30;99.90;;;;;;5038394;28;20427;-73
2022/11/27 06:15:38;;;;;;;12.50;4.70;;;5.30;99.90;;;;;;5028114;28;20465;-73
2022/11/27 06:18:04;;;;;;;13.27;4.93;;;5.30;99.90;;;;;;5012433;28;20411;-73
2022/11/27 06:20:30;;;;;;;10.85;4.45;;;5.20;99.90;;;;;;5012231;28;20474;-73
2022/11/27 06:22:56;;;;;;;11.63;4.93;;;5.30;99.90;;;;;;5046853;28;20480;-73
2022/11/27 06:25:22;;;;;;;10.18;4.50;;;5.30;99.90;;;;;;5048219;28;20398;-73
2022/11/27 06:27:48;;;;;;;14.15;4.85;;;5.20;99.90;;;;;;5025671;28;20411;-73
2022/11/27 06:30:14;;;;;;;11.95;4.45;;;5.20;99.90;;;;;;5023403;28;20423;-73
2022/11/27 06:32:40;;;;;;;11.05;5.03;;;5.20;99.90;;;;;;5043193;28;20832;-73
2022/11/27 06:35:06;;;;;;;12.02;5.05;;;5.20;99.90;;;;;;5040547;28;20837;-73
2022/11/27 06:37:32;;;;;;;14.25;5.40;;;5.20;99.90;;;;;;5027259;28;20506;-74
2022/11/27 06:39:57;;;;;;;12.80;4.63;;;5.20;99.90;;;;;;5039632;28;20528;-73
2022/11/27 06:42:23;;;;;;;10.85;4.38;;;5.20;99.90;;;;;;5030904;28;20415;-73
2022/11/27 06:44:48;;;;;;;12.70;5.13;;;5.20;99.90;;;;;;5030830;28;20401;-73
2022/11/27 06:47:14;;;;;;;13.30;5.10;;;5.20;99.90;;;;;;5029298;28;20407;-73
2022/11/27 06:49:39;;;;;;;12.97;5.03;;;5.20;99.90;;;;;;5039996;28;20413;-73
2022/11/27 06:52:05;;;;;;;10.43;4.77;;;5.20;99.90;;;;;;5026610;28;20909;-73
2022/11/27 06:54:31;;;;;;;12.68;5.25;;;5.20;99.90;;;;;;5040168;28;20435;-73
2022/11/27 06:56:57;;;;;;;11.63;4.90;;;5.20;99.90;;;;;;5022963;28;20412;-73
2022/11/27 06:59:23;;;;;;;13.80;5.30;;;5.20;99.90;;;;;;5048140;28;20430;-73
2022/11/27 07:01:48;;;;;;;9.93;4.35;;;5.20;99.90;;;;;;5028107;28;20411;-73
2022/11/27 07:04:14;;;;;;;11.65;4.90;;;5.20;99.90;;;;;;5022335;28;20950;-73
2022/11/27 07:06:41;;;;;;;10.50;4.88;;;5.20;99.90;;;;;;5043314;28;20418;-73
2022/11/27 07:09:08;;;;;;;13.68;5.00;;;5.20;99.90;;;;;;5037981;28;20463;-73
2022/11/27 07:11:34;;;;;;;14.50;5.13;;;5.20;99.90;;;;;;5047587;28;20454;-73
2022/11/27 07:14:01;;;;;;;11.33;4.77;;;5.20;99.90;;;;;;5029985;28;20504;-73
2022/11/27 07:16:30;;;;;;;12.45;5.00;;;5.20;99.90;;;;;;5046148;28;20402;-74
2022/11/27 07:19:14;;;;;;;11.40;5.50;;;5.20;99.90;;;;;;5029877;28;20402;-73
2022/11/27 07:21:39;;;;;;;16.13;5.13;;;5.20;99.90;;;;;;5018769;28;20773;-73
2022/11/27 07:24:06;;;;;;;11.97;5.23;;;5.20;99.90;;;;;;5030707;28;20409;-74
2022/11/27 07:26:31;;;;;;;10.40;4.70;;;5.20;99.90;;;;;;5039346;28;20411;-73
2022/11/27 07:28:57;;;;;;;12.07;4.97;;;5.20;99.90;;;;;;5035725;28;20752;-73
2022/11/27 07:31:26;;;;;;;10.52;4.85;;;5.20;99.90;;;;;;4994096;28;20463;-74
2022/11/27 07:33:53;;;;;;;11.73;5.40;;;5.20;99.90;;;;;;5041953;28;20495;-73
2022/11/27 07:36:29;;;;;;;10.38;5.53;;;5.30;99.90;;;;;;5046515;28;20771;-74
2022/11/27 07:38:55;;;;;;;13.48;4.88;;;5.20;99.90;;;;;;5013662;28;20909;-73
2022/11/27 07:41:21;;;;;;;11.77;5.25;;;5.30;99.90;;;;;;5010482;28;20407;-73
2022/11/27 07:43:46;;;;;;;11.73;5.20;;;5.30;99.90;;;;;;5009736;28;20536;-73
2022/11/27 07:46:24;;;;;;;10.40;4.87;;;5.30;99.90;;;;;;5009958;28;20403;-73
2022/11/27 07:48:50;;;;;;;14.00;4.75;;;5.30;99.90;;;;;;5015888;28;20936;-73
2022/11/27 07:51:18;;;;;;;11.98;4.72;;;5.30;99.90;;;;;;5027875;28;20425;-73
2022/11/27 07:53:44;;;;;;;11.35;4.63;;;5.30;99.90;;;;;;5027692;28;20458;-73
2022/11/27 07:56:12;;;;;;;10.73;5.10;;;5.30;99.90;;;;;;5016394;28;20514;-73
2022/11/27 07:58:37;;;;;;;13.63;5.17;;;5.30;99.90;;;;;;5028473;28;20490;-73
2022/11/27 08:01:08;;;;;;;11.40;5.10;;;5.30;99.90;;;;;;5010065;28;20506;-73
2022/11/27 08:03:34;;;;;;;11.73;5.55;;;5.40;99.90;;;;;;5027992;28;20411;-73
2022/11/27 08:05:59;;;;;;;13.83;5.23;;;5.30;99.90;;;;;;5035214;28;20407;-73
2022/11/27 08:08:25;;;;;;;12.70;5.07;;;5.40;99.90;;;;;;5045405;28;20504;-73
2022/11/27 08:10:50;;;;;;;10.43;4.90;;;5.40;99.90;;;;;;5047640;28;20444;-73
2022/11/27 08:13:16;;;;;;;12.17;5.20;;;5.40;99.90;;;;;;5005035;28;20437;-73
2022/11/27 08:15:42;;;;;;;11.52;5.00;;;5.40;99.90;;;;;;5036268;28;20425;-73
2022/11/27 08:18:07;;;;;;;10.37;5.00;;;5.40;99.90;;;;;;5049142;28;20480;-73
2022/11/27 08:20:33;;;;;;;10.70;4.53;;;5.40;99.90;;;;;;5026881;28;20414;-73
2022/11/27 08:22:59;;;;;;;10.05;4.85;;;5.40;99.90;;;;;;5048934;28;20803;-73
2022/11/27 08:25:25;;;;;;;11.70;4.80;;;5.50;99.90;;;;;;5050787;28;20405;-73
2022/11/27 08:27:50;;;;;;;12.32;5.25;;;5.50;99.90;;;;;;5015768;28;20412;-73
2022/11/27 08:30:16;;;;;;;9.82;5.00;;;5.50;99.90;;;;;;5051120;28;20451;-73
2022/11/27 08:32:42;;;;;;;11.77;5.00;;;5.50;99.90;;;;;;5049227;28;20417;-73
2022/11/27 08:35:09;;;;;;;10.38;4.80;;;5.50;99.90;;;;;;5049593;28;20433;-73
2022/11/27 08:37:35;;;;;;;10.60;5.20;;;5.60;99.90;;;;;;5047974;28;20463;-74
2022/11/27 08:40:01;;;;;;;10.03;4.70;;;5.60;99.90;;;;;;5031074;28;20423;-73
2022/11/27 08:42:27;;;;;;;10.90;5.20;;;5.60;99.90;;;;;;5012176;28;20414;-74
2022/11/27 08:44:52;;;;;;;10.80;5.30;;;5.60;99.90;;;;;;5010064;28;20407;-73
2022/11/27 08:47:18;;;;;;;10.77;5.00;;;5.60;99.90;;;;;;5029517;28;20422;-73
2022/11/27 08:49:44;;;;;;;10.90;5.05;;;5.60;99.90;;;;;;5030129;28;20498;-74
2022/11/27 08:52:10;;;;;;;11.05;4.85;;;5.60;99.90;;;;;;5032928;28;20407;-75
2022/11/27 08:54:35;;;;;;;10.23;5.03;;;5.60;99.90;;;;;;5010912;28;20427;-74
2022/11/27 08:57:01;;;;;;;9.07;4.73;;;5.60;99.90;;;;;;5015387;28;20490;-74
2022/11/27 08:59:27;;;;;;;9.18;4.57;;;5.60;99.90;;;;;;5011798;28;20419;-74
2022/11/27 09:01:53;;;;;;;13.57;4.88;;;5.60;99.90;;;;;;5032207;28;20441;-73
2022/11/27 09:04:18;;;;;;;12.87;5.03;;;5.60;99.90;;;;;;5031998;28;20407;-73
2022/11/27 09:06:44;;;;;;;11.25;5.22;;;5.60;99.90;;;;;;5033273;28;20930;-73
2022/11/27 09:09:10;;;;;;;9.95;4.97;;;5.70;99.90;;;;;;4994764;28;20422;-74
2022/11/27 09:11:36;;;;;;;11.68;5.40;;;5.60;99.90;;;;;;5010455;28;20465;-73
2022/11/27 09:14:04;;;;;;;11.48;4.75;;;5.70;99.90;;;;;;5019858;28;20426;-74
2022/11/27 09:16:30;;;;;;;10.17;4.73;;;5.70;99.90;;;;;;5027707;28;20431;-74
2022/11/27 09:18:56;;;;;;;10.30;4.60;;;5.70;99.90;;;;;;5026056;28;20427;-74
2022/11/27 09:21:26;;;;;;;12.50;5.30;;;5.70;99.90;;;;;;5033307;28;20413;-74
2022/11/27 09:23:56;;;;;;;13.35;5.82;;;5.70;99.90;;;;;;5012702;28;20912;-74
2022/11/27 09:26:22;;;;;;;13.30;5.47;;;5.70;99.90;;;;;;5011185;28;20960;-74
2022/11/27 09:28:48;;;;;;;9.80;5.07;;;5.70;99.90;;;;;;5032389;28;20411;-73
2022/11/27 09:31:15;;;;;;;10.67;5.20;;;5.70;99.90;;;;;;5027196;28;20486;-74
2022/11/27 09:33:41;;;;;;;9.85;5.07;;;5.80;99.90;;;;;;5010473;28;20423;-75
2022/11/27 09:36:13;;;;;;;11.20;5.20;;;5.80;99.90;;;;;;4997519;28;20913;-74
2022/11/27 09:38:39;;;;;;;9.63;4.90;;;5.80;99.90;;;;;;5011267;28;20432;-74
2022/11/27 09:41:20;;;;;;;11.40;4.78;;;5.80;99.90;;;;;;5035034;28;20407;-75
2022/11/27 09:43:56;;;;;;;10.90;5.07;;;5.80;99.90;;;;;;5041966;28;20410;-75
2022/11/27 09:46:38;;;;;;;9.23;5.47;;;5.90;99.90;;;;;;5045877;28;20484;-74
2022/11/27 09:49:13;;;;;;;12.77;5.60;;;5.90;99.90;;;;;;5018072;28;20419;-75
2022/11/27 09:51:58;;;;;;;9.63;5.50;;;5.90;99.90;;;;;;5024884;28;20536;-75
2022/11/27 09:54:34;;;;;;;9.63;5.72;;;5.90;99.90;;;;;;5002373;28;20466;-74
2022/11/27 09:57:00;;;;;;;12.00;5.22;;;5.90;99.90;;;;;;5018064;28;20822;-74
2022/11/27 09:59:38;;;;;;;9.53;4.97;;;5.90;99.90;;;;;;5045488;28;20397;-74
2022/11/27 10:02:14;;;;;;;10.85;5.28;;;5.90;99.90;;;;;;5023611;28;20403;-75
2022/11/27 10:04:40;;;;;;;10.32;5.38;;;6.00;99.90;;;;;;5025837;28;20998;-74
2022/11/27 10:07:10;;;;;;;13.98;6.25;;;5.90;99.90;;;;;;5043025;28;20403;-74
2022/11/27 10:10:05;;;;;;;13.27;6.45;;;6.00;99.90;;;;;;5049007;28;20484;-74
2022/11/27 10:12:49;;;;;;;12.25;5.43;;;5.90;99.90;;;;;;5010024;28;20483;-74
2022/11/27 10:15:30;;;;;;;13.30;5.57;;;6.00;99.90;;;;;;4993793;28;20593;-74
2022/11/27 10:18:12;;;;;;;10.55;5.85;;;5.90;99.90;;;;;;5040082;28;20467;-74
2022/11/27 10:20:48;;;;;;;13.33;6.13;;;5.90;99.90;;;;;;5036224;28;20825;-74
2022/11/27 10:23:19;;;;;;;15.77;6.28;;;5.90;99.90;;;;;;5032260;28;20927;-74
2022/11/27 10:26:00;;;;;;;12.07;5.95;;;5.90;99.90;;;;;;5009329;28;20431;-74
2022/11/27 10:28:46;;;;;;;11.32;6.43;;;5.90;99.90;;;;;;5017494;28;20514;-74
2022/11/27 10:31:30;;;;;;;13.00;5.97;;;5.90;99.90;;;;;;5038536;28;20431;-74
2022/11/27 10:34:03;;;;;;;14.13;6.45;;;5.90;99.90;;;;;;5032010;28;20421;-74
2022/11/27 10:36:42;;;;;;;15.65;6.53;;;5.90;99.90;;;;;;5045074;28;20401;-74
2022/11/27 10:39:25;;;;;;;12.87;6.30;;;5.90;99.90;;;;;;5028618;28;21023;-74
2022/11/27 10:42:42;;;;;;;15.00;6.57;;;5.80;99.90;;;;;;5027296;28;20847;-75
2022/11/27 10:45:30;;;;;;;13.70;6.50;;;5.80;99.90;;;;;;4982600;28;20426;-75
2022/11/27 10:47:56;;;;;;;13.30;6.95;;;5.80;99.90;;;;;;5024578;28;21113;-74
2022/11/27 10:50:21;;;;;;;14.45;6.97;;;5.80;99.90;;;;;;5015204;28;20427;-74
2022/11/27 10:52:59;;;;;;;14.37;6.73;;;5.80;99.90;;;;;;5011065;28;20415;-74
2022/11/27 10:56:02;;;;;;;15.77;7.18;;;5.80;99.90;;;;;;4997026;28;21055;-75
2022/11/27 10:58:38;;;;;;;14.65;6.65;;;5.80;99.90;;;;;;5007577;28;20448;-73
2022/11/27 11:01:07;;;;;;;17.20;7.10;;;5.80;99.90;;;;;;5029237;28;20494;-74
2022/11/27 11:03:33;;;;;;;15.90;7.20;;;5.80;99.90;;;;;;4995144;28;20412;-74
2022/11/27 11:06:04;;;;;;;14.02;6.88;;;5.80;99.90;;;;;;5028153;28;20410;-74
2022/11/27 11:08:32;;;;;;;13.20;6.85;;;5.80;99.90;;;;;;5027535;28;20427;-73
2022/11/27 11:11:00;;;;;;;11.45;6.40;;;5.80;99.90;;;;;;5027290;28;20414;-73
2022/11/27 11:13:32;;;;;;;15.57;7.18;;;5.80;99.90;;;;;;5036838;28;20430;-73
2022/11/27 11:16:06;;;;;;;15.02;6.80;;;5.80;99.90;;;;;;5022585;28;20927;-73
2022/11/27 11:18:42;;;;;;;12.73;7.00;;;5.80;99.90;;;;;;5040265;28;20405;-73
2022/11/27 11:21:26;;;;;;;14.98;7.53;;;5.80;99.90;;;;;;5016254;28;20431;-74
2022/11/27 11:24:03;;;;;;;15.52;6.95;;;5.80;99.90;;;;;;4996450;28;20457;-73
2022/11/27 11:26:40;;;;;;;13.63;6.75;;;5.80;99.90;;;;;;5026763;28;20819;-73
2022/11/27 11:29:23;;;;;;;16.00;7.13;;;5.80;99.90;;;;;;5047730;28;20409;-73
2022/11/27 11:31:48;;;;;;;14.95;7.10;;;5.80;99.90;;;;;;5030486;28;21108;-73
2022/11/27 11:34:33;;;;;;;14.33;6.90;;;5.80;99.90;;;;;;5021042;28;20440;-73
2022/11/27 11:37:06;;;;;;;15.68;7.40;;;5.80;99.90;;;;;;5046938;28;20408;-73
2022/11/27 11:39:43;;;;;;;13.52;6.93;;;5.80;99.90;;;;;;5046050;28;20428;-73
2022/11/27 11:42:17;;;;;;;13.75;6.32;;;5.90;99.90;;;;;;5041318;28;20404;-74
2022/11/27 11:44:49;;;;;;;15.05;7.15;;;5.90;99.90;;;;;;5028501;28;20487;-73
2022/11/27 11:47:22;;;;;;;15.13;7.20;;;5.90;99.90;;;;;;5027404;28;20406;-73
2022/11/27 11:49:49;;;;;;;13.23;6.70;;;5.90;99.90;;;;;;5043840;28;20495;-74
2022/11/27 11:52:45;;;;;;;15.63;7.18;;;5.90;99.90;;;;;;5037985;28;21176;-74
2022/11/27 11:55:21;;;;;;;15.68;6.93;;;5.90;99.90;;;;;;5048175;28;20709;-74
2022/11/27 11:57:49;;;;;;;13.93;6.85;;;5.90;99.90;;;;;;5042976;28;20969;-74
2022/11/27 12:00:23;;;;;;;12.10;6.40;;;5.90;99.90;;;;;;5015406;28;20948;-73
2022/11/27 12:03:24;;;;;;;15.05;6.75;;;5.90;99.90;;;;;;5010393;28;20463;-74
2022/11/27 12:06:29;;;;;;;14.18;6.60;;;6.00;99.90;;;;;;5031756;28;20915;-74
2022/11/27 12:09:25;;;;;;;14.18;7.30;;;5.90;99.90;;;;;;4997979;28;20446;-74
2022/11/27 12:12:07;;;;;;;14.05;7.70;;;5.90;99.90;;;;;;5047027;28;20429;-74
2022/11/27 12:14:32;;;;;;;11.90;6.93;;;6.00;99.90;;;;;;5044783;28;20469;-73
2022/11/27 12:17:16;;;;;;;12.00;7.17;;;6.00;99.90;;;;;;5023583;28;20445;-74
2022/11/27 12:19:47;;;;;;;12.52;6.93;;;6.00;99.90;;;;;;5029866;28;20414;-74
2022/11/27 12:22:28;;;;;;;14.40;7.10;;;5.90;99.90;;;;;;5015000;28;20411;-74
2022/11/27 12:24:53;;;;;;;13.75;6.72;;;6.00;99.90;;;;;;5033000;28;20417;-74
2022/11/27 12:27:28;;;;;;;14.43;7.13;;;6.00;99.90;;;;;;5047649;28;20405;-74
2022/11/27 12:30:04;;;;;;;13.47;7.10;;;6.00;99.90;;;;;;5041607;28;20419;-73
2022/11/27 12:32:57;;;;;;;14.77;7.13;;;6.00;99.90;;;;;;5037025;28;20397;-74
2022/11/27 12:36:04;;;;;;;14.98;7.30;;;6.00;99.90;;;;;;5016332;28;20442;-74
2022/11/27 12:39:01;;;;;;;14.35;7.53;;;6.00;99.90;;;;;;5016810;28;20427;-73
2022/11/27 12:41:51;;;;;;;16.08;7.03;;;6.00;99.90;;;;;;5017312;28;20420;-73
2022/11/27 12:44:34;;;;;;;16.27;7.65;;;6.00;99.90;;;;;;5007573;28;20424;-74
2022/11/27 12:47:08;;;;;;;15.73;7.75;;;6.00;99.90;;;;;;5002362;28;20447;-74
2022/11/27 12:49:49;;;;;;;14.98;7.88;;;6.10;99.90;;;;;;5039621;28;21100;-74
2022/11/27 12:52:22;;;;;;;14.13;7.85;;;6.10;99.90;;;;;;5002475;28;20421;-74
2022/11/27 12:55:19;;;;;;;14.40;7.37;;;6.10;99.90;;;;;;5031941;28;20516;-74
2022/11/27 12:58:14;;;;;;;14.18;7.38;;;6.10;99.90;;;;;;5041268;28;20417;-74
2022/11/27 13:00:42;;;;;;;13.98;7.70;;;6.10;99.90;;;;;;5043901;28;20877;-74
2022/11/27 13:03:24;;;;;;;15.07;7.73;;;6.20;99.90;;;;;;5047954;28;20404;-74
2022/11/27 13:06:10;;;;;;;14.88;7.65;;;6.20;99.90;;;;;;5013920;28;20462;-74